createdAt,value
2022-09-23T00:00:16.761Z,28.15
2022-09-23T00:00:46.794Z,28.16
2022-09-23T00:01:16.911Z,28.15
2022-09-23T00:01:46.942Z,28.12
2022-09-23T00:02:17.060Z,28.13
2022-09-23T00:02:47.059Z,28.12
2022-09-23T00:03:17.001Z,28.12
2022-09-23T00:03:47.250Z,28.15
2022-09-23T00:04:17.137Z,28.13
2022-09-23T00:04:47.176Z,28.13
2022-09-23T00:05:17.214Z,28.15
2022-09-23T00:05:47.240Z,28.13
2022-09-23T00:06:17.265Z,28.12
2022-09-23T00:06:47.257Z,28.15
2022-09-23T00:07:17.251Z,28.15
2022-09-23T00:07:47.250Z,28.15
2022-09-23T00:08:17.252Z,28.12
2022-09-23T00:08:47.363Z,28.13
2022-09-23T00:09:17.352Z,28.13
2022-09-23T00:09:47.350Z,28.15
2022-09-23T00:10:17.466Z,28.13
2022-09-23T00:10:47.465Z,28.12
2022-09-23T00:11:17.462Z,28.13
2022-09-23T00:11:47.581Z,28.13
2022-09-23T00:12:17.574Z,28.13
2022-09-23T00:12:47.574Z,28.13
2022-09-23T00:13:17.685Z,28.12
2022-09-23T00:13:47.686Z,28.12
2022-09-23T00:14:17.678Z,28.11
2022-09-23T00:14:47.796Z,28.12
2022-09-23T00:15:17.791Z,28.12
2022-09-23T00:15:47.913Z,28.12
2022-09-23T00:16:17.977Z,28.15
2022-09-23T00:16:48.089Z,28.12
2022-09-23T00:17:18.063Z,28.12
2022-09-23T00:17:48.112Z,28.11
2022-09-23T00:18:18.127Z,28.15
2022-09-23T00:18:48.165Z,28.12
2022-09-23T00:19:18.223Z,28.12
2022-09-23T00:19:48.227Z,28.13
2022-09-23T00:20:18.258Z,28.09
2022-09-23T00:20:48.288Z,28.13
2022-09-23T00:21:18.313Z,28.11
2022-09-23T00:21:48.352Z,28.11
2022-09-23T00:22:18.378Z,28.11
2022-09-23T00:22:48.404Z,28.11
2022-09-23T00:23:18.433Z,28.11
2022-09-23T00:23:48.472Z,28.11
2022-09-23T00:24:18.509Z,28.09
2022-09-23T00:24:48.542Z,28.11
2022-09-23T00:25:18.573Z,28.11
2022-09-23T00:25:48.601Z,28.13
2022-09-23T00:26:18.632Z,28.09
2022-09-23T00:26:48.673Z,28.09
2022-09-23T00:27:18.708Z,28.11
2022-09-23T00:27:48.745Z,28.08
2022-09-23T00:28:18.784Z,28.09
2022-09-23T00:28:48.817Z,28.09
2022-09-23T00:29:18.845Z,28.08
2022-09-23T00:29:48.876Z,28.09
2022-09-23T00:30:18.905Z,28.08
2022-09-23T00:30:48.990Z,28.11
2022-09-23T00:31:19.167Z,28.08
2022-09-23T00:31:49.105Z,28.06
2022-09-23T00:32:19.130Z,28.06
2022-09-23T00:32:49.164Z,28.11
2022-09-23T00:33:19.195Z,28.08
2022-09-23T00:33:49.228Z,28.12
2022-09-23T00:34:19.262Z,28.09
2022-09-23T00:34:49.314Z,28.08
2022-09-23T00:35:19.320Z,28.08
2022-09-23T00:35:49.350Z,28.09
2022-09-23T00:36:19.496Z,28.09
2022-09-23T00:36:49.407Z,28.08
2022-09-23T00:37:19.439Z,28.08
2022-09-23T00:37:49.470Z,28.09
2022-09-23T00:38:19.494Z,28.08
2022-09-23T00:38:49.537Z,28.08
2022-09-23T00:39:19.562Z,28.11
2022-09-23T00:39:49.601Z,28.11
2022-09-23T00:40:19.688Z,28.09
2022-09-23T00:40:49.833Z,28.08
2022-09-23T00:41:19.755Z,28.09
2022-09-23T00:41:49.745Z,28.05
2022-09-23T00:42:19.776Z,28.08
2022-09-23T00:42:49.857Z,28.08
2022-09-23T00:43:19.887Z,28.08
2022-09-23T00:43:49.936Z,28.09
2022-09-23T00:44:19.960Z,28.08
2022-09-23T00:44:49.989Z,28.09
2022-09-23T00:45:20.030Z,28.06
2022-09-23T00:45:50.128Z,28.06
2022-09-23T00:46:20.277Z,28.08
2022-09-23T00:46:50.227Z,28.06
2022-09-23T00:47:20.258Z,28.08
2022-09-23T00:47:50.288Z,28.06
2022-09-23T00:48:20.316Z,28.05
2022-09-23T00:48:50.347Z,28.08
2022-09-23T00:49:20.378Z,28.08
2022-09-23T00:49:50.405Z,28.06
2022-09-23T00:50:20.458Z,28.06
2022-09-23T00:50:50.470Z,28.08
2022-09-23T00:51:20.511Z,28.08
2022-09-23T00:51:50.538Z,28.06
2022-09-23T00:52:20.573Z,28.06
2022-09-23T00:52:50.598Z,28.06
2022-09-23T00:53:20.629Z,28.05
2022-09-23T00:53:50.663Z,28.05
2022-09-23T00:54:20.690Z,28.05
2022-09-23T00:54:50.723Z,28.05
2022-09-23T00:55:20.752Z,28.05
2022-09-23T00:55:50.786Z,28.06
2022-09-23T00:56:20.833Z,28.06
2022-09-23T00:56:50.866Z,28.05
2022-09-23T00:57:20.893Z,28.06
2022-09-23T00:57:50.925Z,28.06
2022-09-23T00:58:20.958Z,28.05
2022-09-23T00:58:50.988Z,28.04
2022-09-23T00:59:21.016Z,28.04
2022-09-23T00:59:51.045Z,28.05
2022-09-23T01:00:21.075Z,28.04
2022-09-23T01:00:51.175Z,28.04
2022-09-23T01:01:21.273Z,28.05
2022-09-23T01:01:51.288Z,28.05
2022-09-23T01:02:21.387Z,28.05
2022-09-23T01:02:51.540Z,28.02
2022-09-23T01:03:21.503Z,28.04
2022-09-23T01:03:51.532Z,28.04
2022-09-23T01:04:21.564Z,28.04
2022-09-23T01:04:51.600Z,28.04
2022-09-23T01:05:21.625Z,28.04
2022-09-23T01:05:51.676Z,28.04
2022-09-23T01:06:21.669Z,28.04
2022-09-23T01:06:51.661Z,27.99
2022-09-23T01:07:21.779Z,28.05
2022-09-23T01:07:51.899Z,28.04
2022-09-23T01:08:22.011Z,28.01
2022-09-23T01:11:45.485Z,27.88
2022-09-23T01:12:54.535Z,27.89
2022-09-23T01:13:24.590Z,27.88
2022-09-23T01:13:54.667Z,27.88
2022-09-23T01:14:24.746Z,27.87
2022-09-23T01:14:54.826Z,27.88
2022-09-23T01:15:24.905Z,27.87
2022-09-23T01:15:54.993Z,27.87
2022-09-23T01:16:25.152Z,27.88
2022-09-23T01:16:55.198Z,27.88
2022-09-23T01:17:25.147Z,27.87
2022-09-23T01:17:55.225Z,27.88
2022-09-23T01:18:25.309Z,27.85
2022-09-23T01:18:55.391Z,27.87
2022-09-23T01:19:25.475Z,27.88
2022-09-23T01:19:55.555Z,27.87
2022-09-23T01:20:25.634Z,27.91
2022-09-23T01:20:55.730Z,27.91
2022-09-23T01:21:25.793Z,27.89
2022-09-23T01:21:55.883Z,27.91
2022-09-23T01:22:25.955Z,27.91
2022-09-23T01:22:55.950Z,27.92
2022-09-23T01:23:26.064Z,27.92
2022-09-23T01:23:56.185Z,27.93
2022-09-23T01:24:26.177Z,27.92
2022-09-23T01:24:56.177Z,27.93
2022-09-23T01:25:26.290Z,27.92
2022-09-23T01:25:56.417Z,27.93
2022-09-23T01:26:26.528Z,27.92
2022-09-23T01:26:56.645Z,27.93
2022-09-23T01:27:26.637Z,27.93
2022-09-23T01:27:56.771Z,27.95
2022-09-23T01:28:26.748Z,27.95
2022-09-23T01:28:56.754Z,27.96
2022-09-23T01:29:26.740Z,27.96
2022-09-23T01:29:56.862Z,27.93
2022-09-23T01:30:26.880Z,27.93
2022-09-23T01:30:56.947Z,27.95
2022-09-23T01:31:26.969Z,27.95
2022-09-23T01:31:57.098Z,27.95
2022-09-23T01:32:27.086Z,27.95
2022-09-23T01:32:57.080Z,27.93
2022-09-23T01:33:27.076Z,27.95
2022-09-23T01:33:57.190Z,27.96
2022-09-23T01:34:27.185Z,27.96
2022-09-23T01:34:57.300Z,27.93
2022-09-23T01:35:27.414Z,27.96
2022-09-23T01:35:57.539Z,27.96
2022-09-23T01:36:27.677Z,27.98
2022-09-23T01:36:57.774Z,27.99
2022-09-23T01:37:27.764Z,27.96
2022-09-23T01:37:57.880Z,27.98
2022-09-23T01:38:27.994Z,27.96
2022-09-23T01:38:57.988Z,27.95
2022-09-23T01:39:28.107Z,27.96
2022-09-23T01:39:58.223Z,27.98
2022-09-23T01:40:28.277Z,27.96
2022-09-23T01:40:58.252Z,27.96
2022-09-23T01:41:28.248Z,27.95
2022-09-23T01:41:58.254Z,27.96
2022-09-23T01:42:28.373Z,27.96
2022-09-23T01:42:58.489Z,27.95
2022-09-23T01:43:28.478Z,27.95
2022-09-23T01:43:58.593Z,27.95
2022-09-23T01:44:28.591Z,27.95
2022-09-23T01:44:58.709Z,27.95
2022-09-23T01:45:28.824Z,27.96
2022-09-23T01:45:58.825Z,27.93
2022-09-23T01:46:28.820Z,27.93
2022-09-23T01:46:58.939Z,27.93
2022-09-23T01:47:28.935Z,27.95
2022-09-23T01:47:59.099Z,27.93
2022-09-23T01:48:29.148Z,27.93
2022-09-23T01:48:59.306Z,27.96
2022-09-23T01:49:29.295Z,27.95
2022-09-23T01:49:59.299Z,27.95
2022-09-23T01:50:29.292Z,27.93
2022-09-23T01:50:59.295Z,27.95
2022-09-23T01:51:29.307Z,27.93
2022-09-23T01:51:59.403Z,27.95
2022-09-23T01:52:29.398Z,27.95
2022-09-23T01:52:59.513Z,27.93
2022-09-23T01:53:29.627Z,27.95
2022-09-23T01:53:59.637Z,27.93
2022-09-23T01:54:29.747Z,27.96
2022-09-23T01:54:59.866Z,27.95
2022-09-23T01:55:29.982Z,27.95
2022-09-23T01:56:00.115Z,27.93
2022-09-23T01:56:30.105Z,27.95
2022-09-23T01:57:00.223Z,27.93
2022-09-23T01:57:30.344Z,27.95
2022-09-23T01:58:00.459Z,27.95
2022-09-23T01:58:30.576Z,27.91
2022-09-23T01:59:00.694Z,27.95
2022-09-23T01:59:30.812Z,27.95
2022-09-23T02:00:00.931Z,27.93
2022-09-23T02:00:30.932Z,27.92
2022-09-23T02:01:01.099Z,27.93
2022-09-23T02:01:31.228Z,27.92
2022-09-23T02:02:01.277Z,27.95
2022-09-23T02:02:31.310Z,27.93
2022-09-23T02:03:01.308Z,27.96
2022-09-23T02:03:31.425Z,27.92
2022-09-23T02:04:01.564Z,27.93
2022-09-23T02:04:31.576Z,27.92
2022-09-23T02:05:01.577Z,27.92
2022-09-23T02:05:31.565Z,27.91
2022-09-23T02:06:01.699Z,27.91
2022-09-23T02:06:31.688Z,27.89
2022-09-23T02:07:01.826Z,27.91
2022-09-23T02:07:31.801Z,27.91
2022-09-23T02:08:01.797Z,27.92
2022-09-23T02:08:31.914Z,27.92
2022-09-23T02:09:01.910Z,27.92
2022-09-23T02:09:32.028Z,27.93
2022-09-23T02:10:02.029Z,27.91
2022-09-23T02:10:32.021Z,27.89
2022-09-23T02:11:02.165Z,27.92
2022-09-23T02:11:32.151Z,27.92
2022-09-23T02:12:02.275Z,27.93
2022-09-23T02:12:32.380Z,27.91
2022-09-23T02:13:02.457Z,27.89
2022-09-23T02:13:32.537Z,27.91
2022-09-23T02:14:02.629Z,27.92
2022-09-23T02:14:32.690Z,27.91
2022-09-23T02:15:02.778Z,27.91
2022-09-23T02:15:32.855Z,27.89
2022-09-23T02:16:02.969Z,27.89
2022-09-23T02:16:33.144Z,27.92
2022-09-23T02:17:03.106Z,27.91
2022-09-23T02:17:33.182Z,27.89
2022-09-23T02:18:03.264Z,27.91
2022-09-23T02:18:33.344Z,27.89
2022-09-23T02:19:03.438Z,27.91
2022-09-23T02:19:33.501Z,27.88
2022-09-23T02:20:03.588Z,27.92
2022-09-23T02:20:33.672Z,27.91
2022-09-23T02:21:03.769Z,27.91
2022-09-23T02:21:33.848Z,27.91
2022-09-23T02:22:03.946Z,27.89
2022-09-23T02:22:34.021Z,27.88
2022-09-23T02:23:04.018Z,27.89
2022-09-23T02:23:34.132Z,27.88
2022-09-23T02:24:04.249Z,27.88
2022-09-23T02:24:34.265Z,27.89
2022-09-23T02:25:04.384Z,27.89
2022-09-23T02:25:34.500Z,27.89
2022-09-23T02:26:04.645Z,27.87
2022-09-23T02:26:34.638Z,27.89
2022-09-23T02:27:04.755Z,27.87
2022-09-23T02:27:34.749Z,27.87
2022-09-23T02:28:04.864Z,27.88
2022-09-23T02:28:34.861Z,27.88
2022-09-23T02:29:04.857Z,27.89
2022-09-23T02:29:34.852Z,27.89
2022-09-23T02:30:04.972Z,27.88
2022-09-23T02:30:34.965Z,27.88
2022-09-23T02:31:05.105Z,27.89
2022-09-23T02:31:35.117Z,27.88
2022-09-23T02:32:05.192Z,27.87
2022-09-23T02:32:35.204Z,27.87
2022-09-23T02:33:05.320Z,27.87
2022-09-23T02:33:35.316Z,27.87
2022-09-23T02:34:05.432Z,27.87
2022-09-23T02:34:35.425Z,27.84
2022-09-23T02:35:05.544Z,27.85
2022-09-23T02:35:35.662Z,27.87
2022-09-23T02:36:05.662Z,27.85
2022-09-23T02:36:35.659Z,27.87
2022-09-23T02:37:05.802Z,27.85
2022-09-23T02:37:35.773Z,27.85
2022-09-23T02:38:05.890Z,27.88
2022-09-23T02:38:35.934Z,27.89
2022-09-23T02:39:06.056Z,27.85
2022-09-23T02:39:36.168Z,27.87
2022-09-23T02:40:06.359Z,27.87
2022-09-23T02:40:36.433Z,27.88
2022-09-23T02:41:06.417Z,27.88
2022-09-23T02:41:36.548Z,27.87
2022-09-23T02:42:06.548Z,27.88
2022-09-23T02:42:36.660Z,27.91
2022-09-23T02:43:06.774Z,27.88
2022-09-23T02:43:36.768Z,27.85
2022-09-23T02:44:07.060Z,27.84
2022-09-23T02:44:36.918Z,27.87
2022-09-23T02:45:06.915Z,27.85
2022-09-23T02:45:37.192Z,27.85
2022-09-23T02:46:07.134Z,27.84
2022-09-23T02:46:37.054Z,27.87
2022-09-23T02:47:07.169Z,27.87
2022-09-23T02:47:37.284Z,27.87
2022-09-23T02:48:07.279Z,27.85
2022-09-23T02:48:37.274Z,27.87
2022-09-23T02:49:07.385Z,27.85
2022-09-23T02:49:37.381Z,27.87
2022-09-23T02:50:07.498Z,27.85
2022-09-23T02:50:37.615Z,27.87
2022-09-23T02:51:07.735Z,27.85
2022-09-23T02:51:37.867Z,27.87
2022-09-23T02:52:07.866Z,27.85
2022-09-23T02:52:37.986Z,27.87
2022-09-23T02:53:08.080Z,27.85
2022-09-23T02:53:38.078Z,27.87
2022-09-23T02:54:08.074Z,27.88
2022-09-23T02:54:38.194Z,27.87
2022-09-23T02:55:08.306Z,27.87
2022-09-23T02:55:38.421Z,27.87
2022-09-23T02:56:08.538Z,27.89
2022-09-23T02:56:38.659Z,27.88
2022-09-23T02:57:08.649Z,27.88
2022-09-23T02:57:38.648Z,27.87
2022-09-23T02:58:08.760Z,27.87
2022-09-23T02:58:38.878Z,27.88
2022-09-23T02:59:08.881Z,27.91
2022-09-23T02:59:38.986Z,27.89
2022-09-23T03:00:08.987Z,27.91
2022-09-23T03:00:38.980Z,27.91
2022-09-23T03:01:09.198Z,27.89
2022-09-23T03:01:39.326Z,27.91
2022-09-23T03:02:09.255Z,27.89
2022-09-23T03:02:39.343Z,27.89
2022-09-23T03:03:09.331Z,27.93
2022-09-23T03:03:39.325Z,27.92
2022-09-23T03:04:09.439Z,27.91
2022-09-23T03:04:39.557Z,27.92
2022-09-23T03:05:09.568Z,27.93
2022-09-23T03:05:39.676Z,27.92
2022-09-23T03:06:09.847Z,27.93
2022-09-23T03:06:39.844Z,27.93
2022-09-23T03:07:09.957Z,27.93
2022-09-23T03:07:39.957Z,27.95
2022-09-23T03:08:09.969Z,27.95
2022-09-23T03:08:40.059Z,27.95
2022-09-23T03:09:10.056Z,27.95
2022-09-23T03:09:40.051Z,27.96
2022-09-23T03:10:10.169Z,27.95
2022-09-23T03:10:40.287Z,27.96
2022-09-23T03:11:10.416Z,27.96
2022-09-23T03:11:40.432Z,27.96
2022-09-23T03:12:10.420Z,27.98
2022-09-23T03:12:40.523Z,27.98
2022-09-23T03:13:10.610Z,27.98
2022-09-23T03:13:40.689Z,27.98
2022-09-23T03:14:10.773Z,27.99
2022-09-23T03:14:40.853Z,27.99
2022-09-23T03:15:10.937Z,28.01
2022-09-23T03:15:41.014Z,27.98
2022-09-23T03:16:11.196Z,27.98
2022-09-23T03:16:41.216Z,27.98
2022-09-23T03:17:11.275Z,27.99
2022-09-23T03:17:41.355Z,27.99
2022-09-23T03:18:11.431Z,28.02
2022-09-23T03:18:41.514Z,28.01
2022-09-23T03:19:11.593Z,28.01
2022-09-23T03:19:41.679Z,27.99
2022-09-23T03:20:11.759Z,27.98
2022-09-23T03:20:41.834Z,28.01
2022-09-23T03:21:11.936Z,28.01
2022-09-23T03:21:42.013Z,27.98
2022-09-23T03:22:12.087Z,28.02
2022-09-23T03:22:42.194Z,28.01
2022-09-23T03:23:12.332Z,28.01
2022-09-23T03:23:42.306Z,28.02
2022-09-23T03:24:12.419Z,27.99
2022-09-23T03:24:42.536Z,28.02
2022-09-23T03:25:12.653Z,28.04
2022-09-23T03:25:42.772Z,28.02
2022-09-23T03:26:12.903Z,28.01
2022-09-23T03:26:42.897Z,28.04
2022-09-23T03:27:13.014Z,28.02
2022-09-23T03:27:43.128Z,28.01
2022-09-23T03:28:13.245Z,27.99
2022-09-23T03:28:43.359Z,28.01
2022-09-23T03:29:13.471Z,28.01
2022-09-23T03:29:43.585Z,28.01
2022-09-23T03:30:13.704Z,28.02
2022-09-23T03:30:43.821Z,28.01
2022-09-23T03:31:14.020Z,27.99
2022-09-23T03:31:44.035Z,27.99
2022-09-23T03:32:14.029Z,27.98
2022-09-23T03:32:44.026Z,28.01
2022-09-23T03:33:14.021Z,27.99
2022-09-23T03:33:44.136Z,27.98
2022-09-23T03:34:14.249Z,27.98
2022-09-23T03:34:44.376Z,27.98
2022-09-23T03:35:14.368Z,27.98
2022-09-23T03:35:44.488Z,27.98
2022-09-23T03:36:14.520Z,27.96
2022-09-23T03:36:44.513Z,27.98
2022-09-23T03:37:14.628Z,27.96
2022-09-23T03:37:44.748Z,27.95
2022-09-23T03:38:14.763Z,27.95
2022-09-23T03:38:44.854Z,27.95
2022-09-23T03:39:14.970Z,27.93
2022-09-23T03:39:44.972Z,27.95
2022-09-23T03:40:15.062Z,27.93
2022-09-23T03:40:45.193Z,27.93
2022-09-23T03:41:15.054Z,27.92
2022-09-23T03:41:45.174Z,27.93
2022-09-23T03:42:15.288Z,27.93
2022-09-23T03:42:45.286Z,27.92
2022-09-23T03:43:15.297Z,27.92
2022-09-23T03:43:45.300Z,27.93
2022-09-23T03:44:15.296Z,27.92
2022-09-23T03:44:45.411Z,27.93
2022-09-23T03:45:15.407Z,27.92
2022-09-23T03:45:45.616Z,27.88
2022-09-23T03:46:15.660Z,27.89
2022-09-23T03:46:45.649Z,27.89
2022-09-23T03:47:15.647Z,27.91
2022-09-23T03:47:45.770Z,27.92
2022-09-23T03:48:15.764Z,27.91
2022-09-23T03:48:45.887Z,27.89
2022-09-23T03:49:15.997Z,27.89
2022-09-23T03:49:45.994Z,27.89
2022-09-23T03:50:16.115Z,27.91
2022-09-23T03:50:46.245Z,27.91
2022-09-23T03:51:16.232Z,27.91
2022-09-23T03:51:46.229Z,27.91
2022-09-23T03:52:16.344Z,27.91
2022-09-23T03:52:46.457Z,27.91
2022-09-23T03:53:16.474Z,27.92
2022-09-23T03:53:46.450Z,27.91
2022-09-23T03:54:16.564Z,27.91
2022-09-23T03:54:46.683Z,27.92
2022-09-23T03:55:16.686Z,27.91
2022-09-23T03:55:46.711Z,27.92
2022-09-23T03:56:16.693Z,27.89
2022-09-23T03:56:46.810Z,27.91
2022-09-23T03:57:16.807Z,27.93
2022-09-23T03:57:46.926Z,27.92
2022-09-23T03:58:17.043Z,27.92
2022-09-23T03:58:47.156Z,27.95
2022-09-23T03:59:17.150Z,27.91
2022-09-23T03:59:47.269Z,27.92
2022-09-23T04:00:17.265Z,27.93
2022-09-23T04:00:47.429Z,27.92
2022-09-23T04:01:17.498Z,27.95
2022-09-23T04:01:47.538Z,27.95
2022-09-23T04:02:17.533Z,27.93
2022-09-23T04:02:47.531Z,27.93
2022-09-23T04:03:17.527Z,27.93
2022-09-23T04:03:47.646Z,27.95
2022-09-23T04:04:17.763Z,27.92
2022-09-23T04:04:47.877Z,27.93
2022-09-23T04:05:17.996Z,27.92
2022-09-23T04:05:47.997Z,27.93
2022-09-23T04:06:18.114Z,27.93
2022-09-23T04:06:48.248Z,27.95
2022-09-23T04:07:18.240Z,27.93
2022-09-23T04:07:48.357Z,27.93
2022-09-23T04:08:18.472Z,27.96
2022-09-23T04:08:48.677Z,27.93
2022-09-23T04:09:18.503Z,27.92
2022-09-23T04:09:48.620Z,27.95
2022-09-23T04:10:18.612Z,27.95
2022-09-23T04:10:52.896Z,27.96
2022-09-23T04:11:18.749Z,27.98
2022-09-23T04:11:48.745Z,27.96
2022-09-23T04:12:18.737Z,27.99
2022-09-23T04:12:48.826Z,27.96
2022-09-23T04:13:18.904Z,27.99
2022-09-23T04:13:48.984Z,27.98
2022-09-23T04:14:19.062Z,27.99
2022-09-23T04:14:49.142Z,28.01
2022-09-23T04:15:19.224Z,28.01
2022-09-23T04:15:49.303Z,28.01
2022-09-23T04:16:19.442Z,28.04
2022-09-23T04:16:49.540Z,28.04
2022-09-23T04:17:19.516Z,28.04
2022-09-23T04:17:49.592Z,28.04
2022-09-23T04:18:19.670Z,28.02
2022-09-23T04:18:49.748Z,28.05
2022-09-23T04:19:19.819Z,28.06
2022-09-23T04:19:49.902Z,28.04
2022-09-23T04:20:19.985Z,28.08
2022-09-23T04:20:50.064Z,28.08
2022-09-23T04:21:20.138Z,28.08
2022-09-23T04:21:50.221Z,28.11
2022-09-23T04:22:20.300Z,28.09
2022-09-23T04:22:50.415Z,28.11
2022-09-23T04:23:20.532Z,28.08
2022-09-23T04:23:50.675Z,28.12
2022-09-23T04:24:20.773Z,28.13
2022-09-23T04:24:50.764Z,28.09
2022-09-23T04:25:20.762Z,28.12
2022-09-23T04:25:50.876Z,28.13
2022-09-23T04:26:20.995Z,28.15
2022-09-23T04:26:50.999Z,28.16
2022-09-23T04:27:20.986Z,28.16
2022-09-23T04:27:51.104Z,28.13
2022-09-23T04:28:21.098Z,28.15
2022-09-23T04:28:51.219Z,28.16
2022-09-23T04:29:21.334Z,28.16
2022-09-23T04:29:51.452Z,28.16
2022-09-23T04:30:21.573Z,28.16
2022-09-23T04:30:51.691Z,28.19
2022-09-23T04:31:21.722Z,28.16
2022-09-23T04:31:51.863Z,28.18
2022-09-23T04:32:21.852Z,28.16
2022-09-23T04:32:51.966Z,28.15
2022-09-23T04:33:21.960Z,28.16
2022-09-23T04:33:52.077Z,28.16
2022-09-23T04:34:22.197Z,28.16
2022-09-23T04:34:52.311Z,28.15
2022-09-23T04:35:22.433Z,28.15
2022-09-23T04:35:52.547Z,28.15
2022-09-23T04:36:22.539Z,28.15
2022-09-23T04:36:52.669Z,28.16
2022-09-23T04:37:22.674Z,28.15
2022-09-23T04:37:52.668Z,28.13
2022-09-23T04:38:22.678Z,28.18
2022-09-23T04:38:52.714Z,28.16
2022-09-23T04:39:22.736Z,28.13
2022-09-23T04:39:52.754Z,28.13
2022-09-23T04:40:22.864Z,28.16
2022-09-23T04:40:52.933Z,28.19
2022-09-23T04:41:22.861Z,28.16
2022-09-23T04:41:52.852Z,28.15
2022-09-23T04:42:22.971Z,28.15
2022-09-23T04:42:52.975Z,28.16
2022-09-23T04:43:22.970Z,28.15
2022-09-23T04:43:52.964Z,28.16
2022-09-23T04:44:22.958Z,28.15
2022-09-23T04:44:53.077Z,28.12
2022-09-23T04:45:23.208Z,28.16
2022-09-23T04:45:53.214Z,28.16
2022-09-23T04:46:23.390Z,28.13
2022-09-23T04:46:53.387Z,28.15
2022-09-23T04:47:23.379Z,28.13
2022-09-23T04:47:53.500Z,28.13
2022-09-23T04:48:23.613Z,28.18
2022-09-23T04:48:53.731Z,28.13
2022-09-23T04:49:23.726Z,28.15
2022-09-23T04:49:57.765Z,28.12
2022-09-23T04:50:23.857Z,28.13
2022-09-23T04:50:53.854Z,28.12
2022-09-23T04:51:23.984Z,28.12
2022-09-23T04:51:53.977Z,28.15
2022-09-23T04:52:23.973Z,28.16
2022-09-23T04:52:54.092Z,28.18
2022-09-23T04:53:24.204Z,28.15
2022-09-23T04:53:54.321Z,28.16
2022-09-23T04:54:24.463Z,28.19
2022-09-23T04:54:54.555Z,28.18
2022-09-23T04:55:24.550Z,28.20
2022-09-23T04:55:54.669Z,28.20
2022-09-23T04:56:24.815Z,28.20
2022-09-23T04:56:54.804Z,28.22
2022-09-23T04:57:24.929Z,28.23
2022-09-23T04:57:55.042Z,28.22
2022-09-23T04:58:25.156Z,28.19
2022-09-23T04:58:55.147Z,28.18
2022-09-23T04:59:25.266Z,28.15
2022-09-23T04:59:55.384Z,28.16
2022-09-23T05:00:25.376Z,28.19
2022-09-23T05:00:55.393Z,28.18
2022-09-23T05:01:25.568Z,28.15
2022-09-23T05:01:55.657Z,28.16
2022-09-23T05:02:25.689Z,28.13
2022-09-23T05:02:55.671Z,28.15
2022-09-23T05:03:25.797Z,28.12
2022-09-23T05:03:55.792Z,28.09
2022-09-23T05:04:25.908Z,28.11
2022-09-23T05:04:56.023Z,28.08
2022-09-23T05:05:26.019Z,28.09
2022-09-23T05:05:56.137Z,28.08
2022-09-23T05:06:26.267Z,28.08
2022-09-23T05:06:59.483Z,28.05
2022-09-23T05:07:26.276Z,28.05
2022-09-23T05:07:56.390Z,28.06
2022-09-23T05:08:26.512Z,28.01
2022-09-23T05:08:56.624Z,28.02
2022-09-23T05:09:26.743Z,28.02
2022-09-23T05:09:56.793Z,28.02
2022-09-23T05:10:26.884Z,28.04
2022-09-23T05:10:57.004Z,27.99
2022-09-23T05:11:27.142Z,27.99
2022-09-23T05:11:57.134Z,27.99
2022-09-23T05:12:27.241Z,27.98
2022-09-23T05:12:57.510Z,27.98
2022-09-23T05:13:27.329Z,27.98
2022-09-23T05:13:57.407Z,27.99
2022-09-23T05:14:27.495Z,27.98
2022-09-23T05:14:57.569Z,27.98
2022-09-23T05:15:27.653Z,27.99
2022-09-23T05:15:57.779Z,27.96
2022-09-23T05:16:27.997Z,27.96
2022-09-23T05:16:57.819Z,27.95
2022-09-23T05:17:27.906Z,27.93
2022-09-23T05:17:57.989Z,27.93
2022-09-23T05:18:28.070Z,27.92
2022-09-23T05:18:58.169Z,27.91
2022-09-23T05:19:28.232Z,27.89
2022-09-23T05:19:58.307Z,27.88
2022-09-23T05:20:28.389Z,27.88
2022-09-23T05:20:58.466Z,27.85
2022-09-23T05:21:28.554Z,27.88
2022-09-23T05:21:58.635Z,27.88
2022-09-23T05:22:28.723Z,27.88
2022-09-23T05:22:58.840Z,27.88
2022-09-23T05:23:28.960Z,27.88
2022-09-23T05:23:59.123Z,27.88
2022-09-23T05:24:28.996Z,27.82
2022-09-23T05:24:59.135Z,27.84
2022-09-23T05:25:29.232Z,27.85
2022-09-23T05:25:59.348Z,27.84
2022-09-23T05:26:29.496Z,27.81
2022-09-23T05:26:59.489Z,27.84
2022-09-23T05:27:29.484Z,27.81
2022-09-23T05:27:59.598Z,27.84
2022-09-23T05:28:29.595Z,27.84
2022-09-23T05:28:59.819Z,27.84
2022-09-23T05:29:29.825Z,27.79
2022-09-23T05:29:59.936Z,27.84
2022-09-23T05:30:30.053Z,27.81
2022-09-23T05:31:00.135Z,27.85
2022-09-23T05:31:30.310Z,27.82
2022-09-23T05:32:00.326Z,27.78
2022-09-23T05:32:30.296Z,27.79
2022-09-23T05:33:00.408Z,27.81
2022-09-23T05:33:30.525Z,27.79
2022-09-23T05:34:00.519Z,27.79
2022-09-23T05:34:30.638Z,27.78
2022-09-23T05:35:00.753Z,27.78
2022-09-23T05:35:30.871Z,27.82
2022-09-23T05:36:00.870Z,27.78
2022-09-23T05:36:35.591Z,27.78
2022-09-23T05:37:01.004Z,27.78
2022-09-23T05:37:31.121Z,27.78
2022-09-23T05:38:01.238Z,27.77
2022-09-23T05:38:31.357Z,27.75
2022-09-23T05:39:01.473Z,27.74
2022-09-23T05:39:31.586Z,27.75
2022-09-23T05:40:01.705Z,27.75
2022-09-23T05:40:31.919Z,27.78
2022-09-23T05:41:01.891Z,27.74
2022-09-23T05:41:32.020Z,27.77
2022-09-23T05:42:02.012Z,27.77
2022-09-23T05:42:32.132Z,27.77
2022-09-23T05:43:02.249Z,27.78
2022-09-23T05:43:32.243Z,27.82
2022-09-23T05:44:02.360Z,27.81
2022-09-23T05:44:32.487Z,27.79
2022-09-23T05:45:02.596Z,27.82
2022-09-23T05:45:32.715Z,27.82
2022-09-23T05:46:05.964Z,27.81
2022-09-23T05:46:32.793Z,27.81
2022-09-23T05:47:02.901Z,27.84
2022-09-23T05:47:32.782Z,27.85
2022-09-23T05:48:02.900Z,27.82
2022-09-23T05:48:32.896Z,27.85
2022-09-23T05:49:08.074Z,27.87
2022-09-23T05:49:55.239Z,27.85
2022-09-23T05:50:02.917Z,27.84
2022-09-23T05:50:33.035Z,27.84
2022-09-23T05:51:03.035Z,27.84
2022-09-23T05:51:33.038Z,27.84
2022-09-23T05:52:03.029Z,27.84
2022-09-23T05:52:33.148Z,27.81
2022-09-23T05:53:03.142Z,27.84
2022-09-23T05:53:33.137Z,27.85
2022-09-23T05:54:03.167Z,27.82
2022-09-23T05:54:33.135Z,27.81
2022-09-23T05:55:03.254Z,27.82
2022-09-23T05:55:33.247Z,27.84
2022-09-23T05:56:33.370Z,27.84
2022-09-23T05:57:05.000Z,27.84
2022-09-23T05:57:33.438Z,27.85
2022-09-23T05:58:03.553Z,27.87
2022-09-23T05:58:33.668Z,27.88
2022-09-23T05:59:03.781Z,27.87
2022-09-23T05:59:33.783Z,27.84
2022-09-23T06:00:03.900Z,27.84
2022-09-23T06:00:34.019Z,27.82
2022-09-23T06:01:04.009Z,27.82
2022-09-23T06:01:34.447Z,27.85
2022-09-23T06:02:04.156Z,27.85
2022-09-23T06:02:34.304Z,27.85
2022-09-23T06:03:04.348Z,27.85
2022-09-23T06:03:34.331Z,27.87
2022-09-23T06:04:04.326Z,27.87
2022-09-23T06:04:34.442Z,27.87
2022-09-23T06:05:04.554Z,27.87
2022-09-23T06:05:34.674Z,27.84
2022-09-23T06:06:04.667Z,27.89
2022-09-23T06:06:34.819Z,27.88
2022-09-23T06:07:04.814Z,27.88
2022-09-23T06:07:34.816Z,27.89
2022-09-23T06:08:04.927Z,27.92
2022-09-23T06:08:35.040Z,27.89
2022-09-23T06:09:05.035Z,27.89
2022-09-23T06:09:36.702Z,27.91
2022-09-23T06:10:05.267Z,27.92
2022-09-23T06:10:35.265Z,27.93
2022-09-23T06:11:05.260Z,27.92
2022-09-23T06:11:35.415Z,27.93
2022-09-23T06:12:05.384Z,27.96
2022-09-23T06:12:35.485Z,27.93
2022-09-23T06:13:05.560Z,27.95
2022-09-23T06:13:35.637Z,27.93
2022-09-23T06:14:05.843Z,27.95
2022-09-23T06:14:35.744Z,27.96
2022-09-23T06:15:05.822Z,27.98
2022-09-23T06:15:35.911Z,27.98
2022-09-23T06:16:06.070Z,27.96
2022-09-23T06:16:36.150Z,27.95
2022-09-23T06:17:06.105Z,27.96
2022-09-23T06:17:36.194Z,27.98
2022-09-23T06:18:06.267Z,27.98
2022-09-23T06:18:36.346Z,28.01
2022-09-23T06:19:07.023Z,27.99
2022-09-23T06:19:36.523Z,28.01
2022-09-23T06:20:06.597Z,28.01
2022-09-23T06:20:36.686Z,27.99
2022-09-23T06:21:06.762Z,28.01
2022-09-23T06:21:36.848Z,28.02
2022-09-23T06:22:06.927Z,28.01
2022-09-23T06:22:39.794Z,27.98
2022-09-23T06:23:09.967Z,27.98
2022-09-23T06:23:40.547Z,27.98
2022-09-23T06:24:07.491Z,27.95
2022-09-23T06:24:37.262Z,27.96
2022-09-23T06:25:07.379Z,27.98
2022-09-23T06:25:37.400Z,27.95
2022-09-23T06:26:07.495Z,27.96
2022-09-23T06:26:37.668Z,27.96
2022-09-23T06:27:07.630Z,27.93
2022-09-23T06:27:37.750Z,27.95
2022-09-23T06:28:07.867Z,27.95
2022-09-23T06:28:37.984Z,27.99
2022-09-23T06:29:07.977Z,27.96
2022-09-23T06:29:38.099Z,27.98
2022-09-23T06:30:08.215Z,27.93
2022-09-23T06:30:38.333Z,27.95
2022-09-23T06:31:12.885Z,27.96